Yamba, New South Wales

3:14 AM EST on July 30, 2014 (GMT +1000)
Grafton (YGFN) Elev 108 ft | 29.76 °S, 153.03 °E | Change Station

Current weather conditions updated 14 minutes ago

Clear
Clear
36 °F
Feels Like 36 °F
N
0
Wind Variable Wind from North

Today is forecast to be nearly the same temperature as yesterday.

Today
High -- | Low -- °F
--% Chance of Precip.
Yesterday
High -- | Low -- °F
Precip. -- in
6:32 AM 5:13 PM
Waxing Crescent, 7% visible
Pressure 30.12 in
Visibility -9999.0 miles
Clouds
Dew Point 34 °F
Humidity 93%
Rainfall 0.00 in
Snow Depth Not available.
UV Not available.
Pollen Not available.
Air Quality Not available.
Flu Activity Not available.
SPECI YGFN 291700Z AUTO 00000KT 3400 // NCD 02/01 Q1020

More Conditions Fewer Conditions

Pressure 30.12 in
Visibility -9999.0 miles
Clouds
Dew Point 34 °F
Humidity 93%
Rainfall 0.00 in
Snow Depth Not available.
UV Not available.
Pollen Not available.
Air Quality Not available.
Flu Activity Not available.
SPECI YGFN 291700Z AUTO 00000KT 3400 // NCD 02/01 Q1020

More Conditions Fewer Conditions

10-Day Weather Forecast

Almanac

Astronomy

Jul. 30, 2014 Rise Set
Actual Time 6:32 AM EST 5:13 PM EST
Civil Twilight 6:07 AM EST 5:38 PM EST
Nautical Twilight 5:38 AM EST 6:07 PM EST
Astronomical Twilight 5:10 AM EST 6:35 PM EST
Moon 8:05 AM EST (7/30) 8:07 PM EST (7/30)
Length of Visible Light 11h 31m
Length of Day
10h 40m
Tomorrow will be 1m 13s longer.
Waxing Crescent, 7% of the Moon is Illuminated
Jul 29
Waxing Crescent
Aug 3
First Quarter
Aug 10
Full
Aug 17
Last Quarter
Aug 25
New

Yesterday's Extremes

Country Highs Country Lows

Community

WunderPhotos

Upload Photos

1,738,789 photos uploaded!

Nearby

Snow Depth

Not available.

Earthquake Activity

City Distance Mag. Time & Date
No recent earthquake activity has been reported nearby.
Minimum magnitude displayed is 2.5.

Coastal Water Temperatures

Place Temperature
No Stations Reporting

Nearby Weather Stations

There are no personal weather stations in this area.